createdAt,value
2023-01-25T00:03:36.931Z,26.15
2023-01-25T00:08:38.509Z,26.02
2023-01-25T00:13:39.881Z,25.77
2023-01-25T00:18:41.258Z,26.25
2023-01-25T00:23:42.643Z,26.26
2023-01-25T00:28:48.270Z,26.25
2023-01-25T00:33:51.221Z,26.13
2023-01-25T00:38:53.470Z,25.75
2023-01-25T00:43:54.892Z,26.13
2023-01-25T00:48:56.349Z,25.88
2023-01-25T00:53:57.713Z,25.61
2023-01-25T00:58:59.111Z,26.12
2023-01-25T01:04:00.494Z,25.89
2023-01-25T01:09:02.094Z,26.16
2023-01-25T01:14:03.467Z,25.96
2023-01-25T01:19:04.850Z,26.21
2023-01-25T01:24:06.513Z,25.96
2023-01-25T01:29:10.248Z,25.73
2023-01-25T01:34:13.171Z,25.52
2023-01-25T01:39:14.614Z,25.79
2023-01-25T01:44:22.396Z,26.05
2023-01-25T01:49:27.582Z,25.90
2023-01-25T01:54:43.535Z,25.71
2023-01-25T02:00:03.774Z,26.02
2023-01-25T02:05:06.163Z,26.03
2023-01-25T02:10:09.835Z,26.05
2023-01-25T02:15:11.773Z,26.05
2023-01-25T02:20:33.013Z,25.11
2023-01-25T02:25:34.649Z,25.80
2023-01-25T02:30:36.022Z,25.70
2023-01-25T02:35:44.433Z,25.93
2023-01-25T02:40:48.813Z,25.90
2023-01-25T02:45:52.648Z,25.75
2023-01-25T02:50:54.087Z,25.64
2023-01-25T02:55:55.522Z,26.03
2023-01-25T03:00:56.894Z,25.72
2023-01-25T03:05:58.407Z,25.87
2023-01-25T03:11:00.624Z,25.44
2023-01-25T03:16:06.823Z,25.88
2023-01-25T03:21:09.839Z,25.52
2023-01-25T03:26:19.207Z,25.79
2023-01-25T03:31:20.751Z,25.87
2023-01-25T03:36:22.320Z,25.78
2023-01-25T03:41:23.772Z,25.49
2023-01-25T03:46:25.505Z,25.89
2023-01-25T03:51:26.976Z,25.60
2023-01-25T03:56:28.359Z,25.82
2023-01-25T04:01:29.771Z,25.51
2023-01-25T04:06:31.198Z,25.82
2023-01-25T04:11:32.627Z,25.71
2023-01-25T04:16:36.060Z,25.53
2023-01-25T04:21:37.558Z,25.24
2023-01-25T04:26:38.947Z,25.76
2023-01-25T04:31:40.355Z,25.56
2023-01-25T04:36:41.803Z,25.90
2023-01-25T04:41:44.757Z,25.21
2023-01-25T04:46:46.256Z,25.87
2023-01-25T04:51:47.658Z,25.58
2023-01-25T04:56:49.051Z,25.79
2023-01-25T05:01:50.447Z,25.76
2023-01-25T05:06:51.826Z,25.54
2023-01-25T05:11:53.312Z,25.70
2023-01-25T05:16:54.724Z,25.91
2023-01-25T05:21:59.016Z,25.78
2023-01-25T05:27:00.584Z,25.79
2023-01-25T05:32:15.287Z,25.54
2023-01-25T05:37:18.281Z,25.43
2023-01-25T05:42:19.689Z,25.93
2023-01-25T05:47:21.094Z,25.71
2023-01-25T05:52:22.520Z,25.54
2023-01-25T05:57:23.942Z,25.40
2023-01-25T06:02:25.480Z,25.62
2023-01-25T06:07:26.963Z,25.40
2023-01-25T06:12:29.543Z,25.47
2023-01-25T06:17:31.666Z,25.71
2023-01-25T06:22:33.045Z,25.56
2023-01-25T06:27:34.431Z,25.61
2023-01-25T06:32:35.797Z,25.80
2023-01-25T06:37:37.183Z,25.86
2023-01-25T06:42:38.578Z,26.02
2023-01-25T06:47:40.302Z,25.96
2023-01-25T06:52:41.734Z,26.04
2023-01-25T06:57:43.098Z,25.75
2023-01-25T07:02:44.520Z,25.05
2023-01-25T07:07:46.446Z,24.51
2023-01-25T07:12:47.830Z,23.89
2023-01-25T07:17:49.218Z,23.94
2023-01-25T07:22:50.680Z,23.74
2023-01-25T07:27:52.058Z,24.08
2023-01-25T07:32:54.089Z,23.73
2023-01-25T07:37:55.638Z,23.77
2023-01-25T07:42:57.095Z,23.70
2023-01-25T07:47:58.894Z,23.92
2023-01-25T07:53:00.443Z,23.37
2023-01-25T07:58:01.883Z,24.28
2023-01-25T08:03:03.276Z,23.63
2023-01-25T08:08:04.750Z,23.27
2023-01-25T08:13:06.788Z,23.15
2023-01-25T08:18:08.197Z,23.16
2023-01-25T08:23:09.622Z,23.21
2023-01-25T08:28:11.029Z,23.38
2023-01-25T08:33:12.437Z,23.65
2023-01-25T08:38:13.817Z,23.71
2023-01-25T08:43:15.231Z,23.62
2023-01-25T08:48:16.666Z,23.30
2023-01-25T08:53:18.099Z,23.08
2023-01-25T08:58:21.867Z,22.86
2023-01-25T09:03:23.350Z,23.01
2023-01-25T09:08:24.763Z,23.23
2023-01-25T09:13:26.176Z,22.99
2023-01-25T09:18:28.759Z,22.97
2023-01-25T09:23:31.638Z,22.98
2023-01-25T09:28:33.262Z,22.83
2023-01-25T09:33:35.678Z,22.91
2023-01-25T09:38:37.083Z,23.13
2023-01-25T09:43:45.653Z,23.20
2023-01-25T09:49:09.126Z,22.96
2023-01-25T09:54:13.324Z,23.17
2023-01-25T09:59:16.484Z,22.90
2023-01-25T10:04:19.268Z,22.90
2023-01-25T10:09:39.340Z,22.86
2023-01-25T10:14:40.747Z,22.78
2023-01-25T10:20:07.939Z,22.96
2023-01-25T10:25:27.537Z,22.53
2023-01-25T10:30:30.743Z,22.81
2023-01-25T10:35:39.036Z,22.69
2023-01-25T10:40:45.533Z,22.52
2023-01-25T10:45:48.013Z,22.64
2023-01-25T10:50:51.238Z,22.34
2023-01-25T10:56:10.921Z,22.53
2023-01-25T11:01:25.314Z,22.48
2023-01-25T11:06:33.918Z,21.84
2023-01-25T11:11:36.261Z,21.64
2023-01-25T11:16:38.805Z,21.49
2023-01-25T11:21:40.338Z,21.47
2023-01-25T11:26:41.858Z,21.55
2023-01-25T11:31:50.433Z,21.59
2023-01-25T11:37:19.248Z,21.37
2023-01-25T11:42:46.488Z,21.65
2023-01-25T11:47:59.426Z,21.66
2023-01-25T11:53:42.234Z,21.63
2023-01-25T11:59:08.878Z,21.71
2023-01-25T12:04:23.908Z,21.59
2023-01-25T12:09:44.352Z,21.35
2023-01-25T12:14:58.903Z,21.59
2023-01-25T12:20:21.468Z,21.54
2023-01-25T12:25:30.083Z,21.83
2023-01-25T12:30:51.761Z,22.08
2023-01-25T12:35:54.869Z,21.84
2023-01-25T12:41:04.224Z,22.00
2023-01-25T12:46:13.321Z,21.58
2023-01-25T12:51:15.143Z,21.46
2023-01-25T12:56:28.981Z,21.67
2023-01-25T13:01:35.042Z,21.36
2023-01-25T13:06:50.647Z,21.49
2023-01-25T13:11:51.908Z,21.44
2023-01-25T13:17:09.306Z,21.47
2023-01-25T13:22:11.733Z,21.41
2023-01-25T13:27:29.459Z,21.71
2023-01-25T13:32:33.713Z,21.64
2023-01-25T13:37:35.682Z,21.72
2023-01-25T13:42:38.452Z,22.01
2023-01-25T13:47:39.896Z,22.12
2023-01-25T13:53:01.958Z,22.06
2023-01-25T13:58:28.548Z,21.97
2023-01-25T14:03:31.389Z,22.13
2023-01-25T14:08:32.844Z,21.71
2023-01-25T14:13:34.268Z,21.73
2023-01-25T14:18:37.804Z,22.25
2023-01-25T14:23:39.377Z,22.06
2023-01-25T14:28:45.602Z,22.28
2023-01-25T14:33:54.485Z,22.65
2023-01-25T14:38:56.066Z,22.75
2023-01-25T14:44:05.226Z,23.04
2023-01-25T14:49:09.568Z,22.80
2023-01-25T14:54:26.907Z,22.76
2023-01-25T14:59:32.261Z,22.63
2023-01-25T15:04:35.472Z,22.71
2023-01-25T15:09:42.871Z,22.72
2023-01-25T15:14:49.009Z,22.82
2023-01-25T15:19:53.246Z,22.71
2023-01-25T15:24:58.595Z,22.65
2023-01-25T15:30:00.183Z,23.01
2023-01-25T15:35:02.290Z,22.67
2023-01-25T15:40:03.899Z,22.83
2023-01-25T15:45:06.902Z,22.79
2023-01-25T15:50:16.089Z,22.70
2023-01-25T15:55:17.479Z,23.03
2023-01-25T16:00:21.248Z,22.93
2023-01-25T16:05:22.743Z,22.84
2023-01-25T16:10:24.382Z,22.63
2023-01-25T16:15:25.782Z,22.85
2023-01-25T16:20:27.158Z,22.78
2023-01-25T16:25:28.546Z,22.79
2023-01-25T16:30:32.359Z,22.56
2023-01-25T16:35:33.797Z,22.88
2023-01-25T16:40:39.600Z,22.93
2023-01-25T16:45:40.879Z,22.94
2023-01-25T16:50:42.264Z,22.82
2023-01-25T16:55:43.680Z,22.77
2023-01-25T17:00:46.098Z,22.72
2023-01-25T17:05:47.489Z,23.02
2023-01-25T17:10:49.403Z,22.79
2023-01-25T17:15:50.880Z,22.78
2023-01-25T17:21:03.472Z,22.76
2023-01-25T17:26:05.645Z,22.98
2023-01-25T17:31:17.233Z,22.98
2023-01-25T17:36:18.909Z,22.96
2023-01-25T17:41:20.351Z,22.87
2023-01-25T17:46:27.686Z,23.08
2023-01-25T17:51:29.227Z,22.92
2023-01-25T17:56:30.610Z,23.16
2023-01-25T18:01:32.211Z,23.02
2023-01-25T18:06:33.708Z,23.08
2023-01-25T18:11:36.081Z,23.14
2023-01-25T18:16:38.669Z,23.02
2023-01-25T18:21:41.932Z,23.00
2023-01-25T18:26:43.340Z,23.09
2023-01-25T18:31:45.395Z,23.31
2023-01-25T18:36:48.203Z,23.19
2023-01-25T18:41:49.787Z,23.45
2023-01-25T18:46:51.222Z,23.13
2023-01-25T18:52:08.745Z,23.13
2023-01-25T18:57:13.161Z,23.27
2023-01-25T19:02:15.768Z,23.30
2023-01-25T19:07:17.200Z,23.08
2023-01-25T19:12:18.596Z,22.91
2023-01-25T19:17:19.992Z,22.93
2023-01-25T19:22:21.460Z,23.18
2023-01-25T19:27:22.858Z,23.13
2023-01-25T19:32:24.238Z,23.13
2023-01-25T19:37:25.630Z,23.25
2023-01-25T19:42:27.015Z,23.28
2023-01-25T19:47:28.397Z,23.14
2023-01-25T19:52:29.793Z,23.25
2023-01-25T19:57:32.499Z,23.19
2023-01-25T20:02:33.926Z,23.02
2023-01-25T20:07:35.334Z,23.38
2023-01-25T20:12:36.718Z,23.11
2023-01-25T20:17:38.101Z,23.07
2023-01-25T20:22:39.505Z,23.23
2023-01-25T20:27:40.956Z,23.15
2023-01-25T20:32:42.360Z,23.25
2023-01-25T20:37:43.781Z,23.02
2023-01-25T20:42:45.163Z,23.34
2023-01-25T20:47:46.565Z,23.37
2023-01-25T20:52:48.004Z,23.26
2023-01-25T20:57:49.430Z,23.39
2023-01-25T21:02:50.886Z,23.31
2023-01-25T21:07:52.282Z,23.13
2023-01-25T21:12:53.687Z,23.42
2023-01-25T21:17:55.073Z,23.25
2023-01-25T21:22:56.581Z,23.24
2023-01-25T21:27:58.150Z,23.30
2023-01-25T21:32:59.545Z,23.39
2023-01-25T21:38:00.919Z,23.26
2023-01-25T21:43:02.297Z,23.24
2023-01-25T21:48:03.727Z,23.16
2023-01-25T21:53:05.102Z,23.38
2023-01-25T21:58:06.484Z,23.38
2023-01-25T22:03:08.141Z,23.29
2023-01-25T22:08:10.571Z,23.11
2023-01-25T22:13:13.152Z,23.29
2023-01-25T22:18:14.683Z,23.29
2023-01-25T22:23:16.058Z,23.32
2023-01-25T22:28:17.425Z,23.34
2023-01-25T22:33:21.326Z,23.25
2023-01-25T22:38:22.726Z,23.27
2023-01-25T22:43:24.112Z,23.07
2023-01-25T22:48:25.495Z,23.31
2023-01-25T22:53:26.874Z,23.38
2023-01-25T22:58:28.486Z,23.17
2023-01-25T23:03:29.992Z,23.19
2023-01-25T23:08:33.708Z,23.26
2023-01-25T23:13:36.959Z,23.29
2023-01-25T23:18:50.158Z,23.34
2023-01-25T23:23:51.755Z,23.48
2023-01-25T23:28:54.228Z,23.18
2023-01-25T23:33:58.133Z,23.10
2023-01-25T23:38:59.563Z,23.46
2023-01-25T23:44:01.749Z,23.51
2023-01-25T23:49:03.161Z,23.38
2023-01-25T23:54:04.658Z,23.35
2023-01-25T23:59:07.614Z,23.55
